sensor_id;sensor_type;location;lat;lon;timestamp;pressure;altitude;pressure_sealevel;temperature;humidity
25650;BME280;13505;45.196;5.696;2023-06-10T06:01:42;98856.16;;;20.16;91.19
25650;BME280;13505;45.196;5.696;2023-06-10T06:06:32;98849.56;;;20.20;90.95
25650;BME280;13505;45.196;5.696;2023-06-10T06:11:22;98856.47;;;20.33;89.80
25650;BME280;13505;45.196;5.696;2023-06-10T06:16:13;98856.47;;;20.33;90.22
25650;BME280;13505;45.196;5.696;2023-06-10T06:21:03;98851.94;;;20.43;90.06
25650;BME280;13505;45.196;5.696;2023-06-10T06:25:54;98855.16;;;20.57;89.57
25650;BME280;13505;45.196;5.696;2023-06-10T06:30:44;98856.72;;;20.49;90.19
25650;BME280;13505;45.196;5.696;2023-06-10T06:35:35;98857.44;;;20.42;86.99
25650;BME280;13505;45.196;5.696;2023-06-10T06:40:25;98853.47;;;20.56;85.84
25650;BME280;13505;45.196;5.696;2023-06-10T06:45:15;98856.59;;;20.51;86.10
25650;BME280;13505;45.196;5.696;2023-06-10T06:50:06;98863.75;;;20.70;88.79
25650;BME280;13505;45.196;5.696;2023-06-10T06:54:56;98864.56;;;20.81;89.88
25650;BME280;13505;45.196;5.696;2023-06-10T06:59:47;98861.66;;;20.84;90.86
25650;BME280;13505;45.196;5.696;2023-06-10T07:04:37;98857.13;;;20.94;91.00
25650;BME280;13505;45.196;5.696;2023-06-10T07:09:28;98854.78;;;21.19;90.69
25650;BME280;13505;45.196;5.696;2023-06-10T07:14:18;98855.19;;;21.24;89.50
25650;BME280;13505;45.196;5.696;2023-06-10T07:19:09;98855.66;;;21.10;89.19
25650;BME280;13505;45.196;5.696;2023-06-10T07:23:59;98856.53;;;21.38;88.26
25650;BME280;13505;45.196;5.696;2023-06-10T07:28:50;98853.97;;;21.74;85.64
25650;BME280;13505;45.196;5.696;2023-06-10T07:33:40;98850.41;;;22.02;82.31
25650;BME280;13505;45.196;5.696;2023-06-10T07:38:30;98853.56;;;22.52;79.52
25650;BME280;13505;45.196;5.696;2023-06-10T07:43:21;98851.94;;;22.59;77.22
25650;BME280;13505;45.196;5.696;2023-06-10T07:48:11;98842.19;;;22.84;76.63
25650;BME280;13505;45.196;5.696;2023-06-10T07:57:52;98834.81;;;23.48;75.67
25650;BME280;13505;45.196;5.696;2023-06-10T08:02:43;98838.97;;;23.93;69.19
25650;BME280;13505;45.196;5.696;2023-06-10T08:07:33;98832.94;;;23.91;69.21
25650;BME280;13505;45.196;5.696;2023-06-10T08:12:23;98825.22;;;23.96;67.80
25650;BME280;13505;45.196;5.696;2023-06-10T08:17:14;98825.69;;;23.83;67.30
25650;BME280;13505;45.196;5.696;2023-06-10T08:22:04;98819.69;;;24.06;65.65
25650;BME280;13505;45.196;5.696;2023-06-10T08:26:55;98816.47;;;24.77;64.38
25650;BME280;13505;45.196;5.696;2023-06-10T08:31:47;98816.31;;;25.75;62.35
25650;BME280;13505;45.196;5.696;2023-06-10T08:36:37;98812.72;;;25.83;61.19
25650;BME280;13505;45.196;5.696;2023-06-10T08:41:28;98816.22;;;26.39;54.28
25650;BME280;13505;45.196;5.696;2023-06-10T08:46:20;98823.88;;;26.73;57.02
25650;BME280;13505;45.196;5.696;2023-06-10T08:51:11;98808.34;;;27.06;52.97
25650;BME280;13505;45.196;5.696;2023-06-10T08:56:03;98806.47;;;26.91;55.24
25650;BME280;13505;45.196;5.696;2023-06-10T09:00:54;98810.66;;;27.39;51.41
25650;BME280;13505;45.196;5.696;2023-06-10T09:05:45;98808.03;;;27.30;51.50
25650;BME280;13505;45.196;5.696;2023-06-10T09:10:35;98807.47;;;27.65;50.48
25650;BME280;13505;45.196;5.696;2023-06-10T09:15:26;98804.13;;;27.33;48.64
25650;BME280;13505;45.196;5.696;2023-06-10T09:20:17;98792.03;;;27.66;48.97
25650;BME280;13505;45.196;5.696;2023-06-10T09:25:10;98793.22;;;28.00;50.50
25650;BME280;13505;45.196;5.696;2023-06-10T09:30:01;98788.00;;;28.42;50.14
25650;BME280;13505;45.196;5.696;2023-06-10T09:34:52;98791.94;;;28.96;48.21
25650;BME280;13505;45.196;5.696;2023-06-10T09:39:42;98787.66;;;28.80;48.25
25650;BME280;13505;45.196;5.696;2023-06-10T09:44:32;98788.31;;;28.54;50.60
25650;BME280;13505;45.196;5.696;2023-06-10T09:49:23;98790.38;;;28.80;46.11
25650;BME280;13505;45.196;5.696;2023-06-10T09:54:13;98786.91;;;29.35;45.68
25650;BME280;13505;45.196;5.696;2023-06-10T09:59:04;98786.31;;;28.69;47.55
25650;BME280;13505;45.196;5.696;2023-06-10T10:03:56;98776.56;;;29.52;46.14
25650;BME280;13505;45.196;5.696;2023-06-10T10:08:48;98778.44;;;29.52;45.75
25650;BME280;13505;45.196;5.696;2023-06-10T10:13:39;98774.91;;;29.58;45.91
25650;BME280;13505;45.196;5.696;2023-06-10T10:18:31;98769.31;;;29.73;43.53
25650;BME280;13505;45.196;5.696;2023-06-10T10:23:25;98761.38;;;29.23;45.70
25650;BME280;13505;45.196;5.696;2023-06-10T10:28:21;98766.00;;;29.29;46.16
25650;BME280;13505;45.196;5.696;2023-06-10T10:33:24;98756.84;;;30.26;42.20
25650;BME280;13505;45.196;5.696;2023-06-10T10:38:18;98753.28;;;30.19;42.00
25650;BME280;13505;45.196;5.696;2023-06-10T10:43:09;98754.56;;;30.23;43.57
25650;BME280;13505;45.196;5.696;2023-06-10T10:48:08;98739.16;;;30.96;40.97
25650;BME280;13505;45.196;5.696;2023-06-10T10:53:02;98738.38;;;30.75;41.33
25650;BME280;13505;45.196;5.696;2023-06-10T10:57:58;98727.31;;;31.29;38.66
25650;BME280;13505;45.196;5.696;2023-06-10T11:02:49;98727.78;;;31.19;39.17
25650;BME280;13505;45.196;5.696;2023-06-10T11:07:52;98722.75;;;31.62;38.52
25650;BME280;13505;45.196;5.696;2023-06-10T11:12:53;98731.06;;;31.35;37.58
25650;BME280;13505;45.196;5.696;2023-06-10T11:23:02;98712.09;;;30.22;38.63
25650;BME280;13505;45.196;5.696;2023-06-10T11:27:53;98712.25;;;29.80;38.50
25650;BME280;13505;45.196;5.696;2023-06-10T11:32:43;98718.19;;;29.42;40.78
25650;BME280;13505;45.196;5.696;2023-06-10T11:37:34;98702.63;;;29.64;40.59
25650;BME280;13505;45.196;5.696;2023-06-10T11:42:24;98696.16;;;29.85;40.20
25650;BME280;13505;45.196;5.696;2023-06-10T11:47:15;98684.41;;;30.52;40.54
25650;BME280;13505;45.196;5.696;2023-06-10T11:52:05;98683.97;;;30.75;37.75
25650;BME280;13505;45.196;5.696;2023-06-10T11:57:24;98675.59;;;30.63;38.71
25650;BME280;13505;45.196;5.696;2023-06-10T12:02:31;98669.41;;;29.96;38.94
25650;BME280;13505;45.196;5.696;2023-06-10T12:12:21;98657.47;;;29.56;41.44
25650;BME280;13505;45.196;5.696;2023-06-10T12:17:12;98656.78;;;29.41;41.48
25650;BME280;13505;45.196;5.696;2023-06-10T12:22:02;98653.69;;;29.50;40.52
25650;BME280;13505;45.196;5.696;2023-06-10T12:26:53;98650.38;;;29.62;40.97
25650;BME280;13505;45.196;5.696;2023-06-10T12:32:00;98655.34;;;29.38;41.22
25650;BME280;13505;45.196;5.696;2023-06-10T12:36:51;98649.03;;;29.24;41.38
25650;BME280;13505;45.196;5.696;2023-06-10T12:41:51;98641.06;;;29.09;41.20
25650;BME280;13505;45.196;5.696;2023-06-10T12:46:41;98634.88;;;29.49;39.35
25650;BME280;13505;45.196;5.696;2023-06-10T12:51:32;98633.66;;;30.05;40.14
25650;BME280;13505;45.196;5.696;2023-06-10T12:56:22;98637.81;;;30.21;37.76
25650;BME280;13505;45.196;5.696;2023-06-10T13:01:13;98633.63;;;30.19;37.63
25650;BME280;13505;45.196;5.696;2023-06-10T13:06:04;98626.97;;;29.61;38.24
25650;BME280;13505;45.196;5.696;2023-06-10T13:10:55;98629.78;;;30.54;37.54
25650;BME280;13505;45.196;5.696;2023-06-10T13:15:46;98628.31;;;30.71;37.35
25650;BME280;13505;45.196;5.696;2023-06-10T13:20:36;98622.38;;;31.20;37.11
25650;BME280;13505;45.196;5.696;2023-06-10T13:30:27;98613.75;;;31.62;35.22
25650;BME280;13505;45.196;5.696;2023-06-10T13:35:17;98605.84;;;31.54;37.33
25650;BME280;13505;45.196;5.696;2023-06-10T13:40:08;98602.28;;;31.79;35.39
25650;BME280;13505;45.196;5.696;2023-06-10T13:44:59;98594.69;;;32.06;35.64
25650;BME280;13505;45.196;5.696;2023-06-10T15:57:12;98579.91;;;29.94;39.77
25650;BME280;13505;45.196;5.696;2023-06-10T16:12:04;98589.66;;;29.01;42.63
